createdAt,value
2022-12-23T00:01:23.696Z,95605.16
2022-12-23T00:03:52.303Z,95615.66
2022-12-23T00:06:21.269Z,95614.56
2022-12-23T00:08:49.183Z,95612.06
2022-12-23T00:11:19.755Z,95617.19
2022-12-23T00:14:06.731Z,95614.41
2022-12-23T00:16:37.146Z,95619.69
2022-12-23T00:19:05.205Z,95617.03
2022-12-23T00:21:33.143Z,95611.78
2022-12-23T00:24:01.023Z,95605.59
2022-12-23T00:26:29.118Z,95606.28
2022-12-23T00:28:59.317Z,95603.66
2022-12-23T00:31:27.329Z,95599.09
2022-12-23T00:33:55.188Z,95609.47
2022-12-23T00:36:25.229Z,95599.94
2022-12-23T00:39:10.766Z,95602.44
2022-12-23T00:41:56.578Z,95605.75
2022-12-23T00:44:26.105Z,95604.81
2022-12-23T00:46:53.981Z,95612.69
2022-12-23T00:49:42.401Z,95607.44
2022-12-23T00:52:12.900Z,95620.31
2022-12-23T00:54:40.852Z,95626.28
2022-12-23T00:57:08.761Z,95622.84
2022-12-23T00:59:37.943Z,95635.84
2022-12-23T01:02:23.589Z,95633.91
2022-12-23T01:05:08.850Z,95643.50
2022-12-23T01:07:36.712Z,95645.28
2022-12-23T01:10:05.218Z,95654.72
2022-12-23T01:12:33.307Z,95651.00
2022-12-23T01:15:02.581Z,95652.81
2022-12-23T01:17:30.889Z,95656.09
2022-12-23T01:19:58.711Z,95657.78
2022-12-23T01:22:26.570Z,95651.56
2022-12-23T01:24:54.416Z,95650.59
2022-12-23T01:27:22.267Z,95656.56
2022-12-23T01:29:50.140Z,95664.47
2022-12-23T01:32:19.403Z,95670.41
2022-12-23T01:34:47.351Z,95671.28
2022-12-23T01:37:15.243Z,95677.91
2022-12-23T01:39:43.472Z,95680.53
2022-12-23T01:42:31.911Z,95669.91
2022-12-23T01:45:01.650Z,95674.19
2022-12-23T01:47:39.901Z,95675.75
2022-12-23T01:50:12.471Z,95685.19
2022-12-23T01:52:45.829Z,95678.00
2022-12-23T01:55:18.010Z,95690.88
2022-12-23T01:57:47.367Z,95688.97
2022-12-23T02:00:39.389Z,95688.81
2022-12-23T02:03:26.930Z,95701.84
2022-12-23T02:06:37.201Z,95698.25
2022-12-23T02:09:18.486Z,95697.28
2022-12-23T02:12:21.509Z,95703.13
2022-12-23T02:15:21.412Z,95715.19
2022-12-23T02:18:02.688Z,95724.25
2022-12-23T02:21:07.875Z,95722.31
2022-12-23T02:24:11.660Z,95717.88
2022-12-23T02:26:57.699Z,95724.53
2022-12-23T02:29:56.665Z,95730.28
2022-12-23T02:32:34.194Z,95723.91
2022-12-23T02:35:09.511Z,95728.06
2022-12-23T02:37:44.468Z,95718.38
2022-12-23T02:40:22.661Z,95730.56
2022-12-23T02:42:57.563Z,95731.25
2022-12-23T02:45:33.060Z,95723.50
2022-12-23T02:48:08.329Z,95726.16
2022-12-23T02:50:39.101Z,95741.09
2022-12-23T02:53:12.709Z,95742.78
2022-12-23T02:55:43.727Z,95742.50
2022-12-23T02:58:16.688Z,95748.88
2022-12-23T03:00:46.517Z,95754.84
2022-12-23T03:03:17.325Z,95754.84
2022-12-23T03:05:47.435Z,95755.69
2022-12-23T03:08:18.300Z,95761.91
2022-12-23T03:10:58.312Z,95769.81
2022-12-23T03:13:43.762Z,95764.56
2022-12-23T03:16:21.125Z,95769.66
2022-12-23T03:19:03.550Z,95773.00
2022-12-23T03:21:36.575Z,95768.72
2022-12-23T03:24:18.496Z,95776.63
2022-12-23T03:26:54.889Z,95782.63
2022-12-23T03:29:27.771Z,95791.44
2022-12-23T03:31:58.692Z,95779.84
2022-12-23T03:34:32.331Z,95787.50
2022-12-23T03:37:04.309Z,95789.88
2022-12-23T03:39:37.770Z,95797.50
2022-12-23T03:42:09.127Z,95801.44
2022-12-23T03:44:40.206Z,95795.31
2022-12-23T03:47:12.850Z,95800.34
2022-12-23T03:49:46.360Z,95799.34
2022-12-23T03:52:21.231Z,95808.78
2022-12-23T03:54:54.122Z,95808.66
2022-12-23T03:57:26.899Z,95808.66
2022-12-23T03:59:54.831Z,95806.75
2022-12-23T04:02:28.857Z,95810.22
2022-12-23T04:05:14.916Z,95815.59
2022-12-23T04:07:46.161Z,95810.91
2022-12-23T04:10:15.555Z,95810.91
2022-12-23T04:12:44.042Z,95807.56
2022-12-23T04:15:13.300Z,95823.25
2022-12-23T04:17:41.525Z,95821.56
2022-12-23T04:20:11.871Z,95811.19
2022-12-23T04:22:39.778Z,95817.41
2022-12-23T04:25:08.320Z,95821.13
2022-12-23T04:27:36.101Z,95813.34
2022-12-23T04:30:04.151Z,95808.25
2022-12-23T04:32:31.959Z,95806.56
2022-12-23T04:34:59.811Z,95810.00
2022-12-23T04:37:29.075Z,95806.13
2022-12-23T04:39:56.835Z,95816.84
2022-12-23T04:42:24.722Z,95810.28
2022-12-23T04:44:52.633Z,95815.94
2022-12-23T04:47:20.585Z,95828.69
2022-12-23T04:49:48.408Z,95832.53
2022-12-23T04:52:16.228Z,95840.69
2022-12-23T04:54:46.439Z,95840.94
2022-12-23T04:57:15.194Z,95849.78
2022-12-23T04:59:43.395Z,95850.63
2022-12-23T05:02:11.887Z,95842.59
2022-12-23T05:04:39.954Z,95849.94
2022-12-23T05:07:07.908Z,95841.44
2022-12-23T05:09:35.717Z,95846.44
2022-12-23T05:12:05.179Z,95850.06
2022-12-23T05:14:33.102Z,95858.06
2022-12-23T05:17:06.877Z,95858.66
2022-12-23T05:19:35.554Z,95857.84
2022-12-23T05:22:03.454Z,95851.72
2022-12-23T05:24:31.302Z,95862.25
2022-12-23T05:27:00.429Z,95864.88
2022-12-23T05:29:29.892Z,95865.13
2022-12-23T05:31:57.997Z,95858.66
2022-12-23T05:34:25.960Z,95853.22
2022-12-23T05:36:53.790Z,95854.19
2022-12-23T05:39:21.649Z,95854.31
2022-12-23T05:41:49.467Z,95861.50
2022-12-23T05:44:17.318Z,95862.09
2022-12-23T05:46:46.500Z,95866.53
2022-12-23T05:49:14.353Z,95879.06
2022-12-23T05:51:42.164Z,95878.47
2022-12-23T05:54:10.005Z,95871.53
2022-12-23T05:56:37.845Z,95884.00
2022-12-23T05:59:05.684Z,95880.81
2022-12-23T06:01:33.727Z,95881.66
2022-12-23T06:04:03.171Z,95883.44
2022-12-23T06:06:31.135Z,95887.75
2022-12-23T06:09:00.055Z,95876.22
2022-12-23T06:11:28.755Z,95872.75
2022-12-23T06:13:56.859Z,95872.19
2022-12-23T06:16:24.818Z,95873.13
2022-12-23T06:18:55.597Z,95882.81
2022-12-23T06:21:25.500Z,95881.50
2022-12-23T06:23:53.779Z,95887.63
2022-12-23T06:26:22.271Z,95883.28
2022-12-23T06:28:50.240Z,95885.94
2022-12-23T06:31:18.409Z,95892.28
2022-12-23T06:33:46.421Z,95894.34
2022-12-23T06:36:14.297Z,95895.28
2022-12-23T06:38:43.540Z,95896.25
2022-12-23T06:41:11.392Z,95882.22
2022-12-23T06:43:39.250Z,95876.41
2022-12-23T06:46:07.204Z,95873.06
2022-12-23T06:48:35.147Z,95876.66
2022-12-23T06:51:03.121Z,95884.69
2022-12-23T06:53:30.943Z,95880.50
2022-12-23T06:56:04.072Z,95877.16
2022-12-23T06:58:32.657Z,95887.69
2022-12-23T07:01:00.624Z,95894.63
2022-12-23T07:03:28.682Z,95889.78
2022-12-23T07:05:56.516Z,95900.69
2022-12-23T07:08:24.462Z,95902.00
2022-12-23T07:10:52.245Z,95902.13
2022-12-23T07:13:21.487Z,95916.97
2022-12-23T07:15:49.725Z,95917.47
2022-12-23T07:18:17.572Z,95919.97
2022-12-23T07:20:45.660Z,95920.81
2022-12-23T07:23:13.536Z,95920.25
2022-12-23T07:25:41.925Z,95921.31
2022-12-23T07:28:10.316Z,95924.66
2022-12-23T07:30:40.186Z,95918.69
2022-12-23T07:33:09.032Z,95926.34
2022-12-23T07:35:38.221Z,95925.34
2022-12-23T07:38:06.353Z,95926.59
2022-12-23T07:40:34.645Z,95930.88
2022-12-23T07:43:03.288Z,95923.97
2022-12-23T07:45:31.784Z,95926.22
2022-12-23T07:48:02.458Z,95925.50
2022-12-23T07:50:30.741Z,95926.34
2022-12-23T07:52:59.183Z,95941.16
2022-12-23T07:55:27.433Z,95934.69
2022-12-23T07:57:56.059Z,95939.38
2022-12-23T08:00:24.096Z,95942.59
2022-12-23T08:02:52.517Z,95926.78
2022-12-23T08:05:22.745Z,95937.31
2022-12-23T08:07:52.504Z,95950.22
2022-12-23T08:10:20.838Z,95955.00
2022-12-23T08:12:49.034Z,95949.47
2022-12-23T08:15:17.583Z,95958.09
2022-12-23T08:17:46.155Z,95958.34
2022-12-23T08:20:14.388Z,95956.28
2022-12-23T08:22:43.938Z,95954.50
2022-12-23T08:25:12.539Z,95957.97
2022-12-23T08:27:41.109Z,95957.59
2022-12-23T08:30:12.167Z,95948.72
2022-12-23T08:32:40.408Z,95947.63
2022-12-23T08:35:09.315Z,95949.31
2022-12-23T08:37:37.586Z,95938.53
2022-12-23T08:40:09.056Z,95930.75
2022-12-23T08:42:37.398Z,95934.09
2022-12-23T08:45:06.901Z,95938.97
2022-12-23T08:47:35.183Z,95935.50
2022-12-23T08:50:03.708Z,95934.34
2022-12-23T08:52:31.856Z,95943.63
2022-12-23T08:55:00.159Z,95941.00
2022-12-23T08:57:29.757Z,95943.41
2022-12-23T08:59:58.174Z,95947.44
2022-12-23T09:02:26.910Z,95937.75
2022-12-23T09:04:55.112Z,95946.22
2022-12-23T09:07:23.067Z,95943.47
2022-12-23T09:09:51.901Z,95947.53
2022-12-23T09:12:20.516Z,95954.06
2022-12-23T09:14:50.304Z,95958.34
2022-12-23T09:17:18.639Z,95956.59
2022-12-23T09:19:52.414Z,95953.78
2022-12-23T09:22:20.948Z,95950.91
2022-12-23T09:24:48.803Z,95944.28
2022-12-23T09:27:16.696Z,95951.38
2022-12-23T09:29:44.607Z,95948.47
2022-12-23T09:32:13.838Z,95945.81
2022-12-23T09:34:41.715Z,95946.53
2022-12-23T09:37:09.695Z,95943.63
2022-12-23T09:39:37.519Z,95941.69
2022-12-23T09:42:16.976Z,95931.97
2022-12-23T09:45:04.742Z,95923.13
2022-12-23T09:47:35.757Z,95919.38
2022-12-23T09:50:07.709Z,95925.22
2022-12-23T09:52:44.067Z,95925.22
2022-12-23T09:55:13.149Z,95917.19
2022-12-23T09:57:49.240Z,95904.00
2022-12-23T10:00:20.141Z,95889.88
2022-12-23T10:03:08.466Z,95893.19
2022-12-23T10:05:51.125Z,95893.19
2022-12-23T10:08:29.458Z,95898.47
2022-12-23T10:11:01.389Z,95898.34
2022-12-23T10:13:35.577Z,95895.44
2022-12-23T10:16:07.949Z,95896.13
2022-12-23T10:18:50.568Z,95883.78
2022-12-23T10:21:25.839Z,95894.06
2022-12-23T10:23:55.729Z,95894.63
2022-12-23T10:26:25.722Z,95897.16
2022-12-23T10:29:02.273Z,95892.69
2022-12-23T10:31:41.121Z,95885.75
2022-12-23T10:34:19.513Z,95889.66
2022-12-23T10:36:54.547Z,95882.72
2022-12-23T10:39:32.094Z,95886.06
2022-12-23T10:42:12.165Z,95879.09
2022-12-23T10:45:00.341Z,95868.28
2022-12-23T10:47:41.947Z,95875.94
2022-12-23T10:50:29.438Z,95858.31
2022-12-23T10:52:59.945Z,95861.25
2022-12-23T10:55:34.058Z,95857.50
2022-12-23T10:58:08.786Z,95856.13
2022-12-23T11:00:40.011Z,95852.81
2022-12-23T11:03:17.144Z,95844.75
2022-12-23T11:05:47.777Z,95846.97
2022-12-23T11:08:16.393Z,95847.81
2022-12-23T11:10:44.544Z,95846.56
2022-12-23T11:13:25.622Z,95845.59
2022-12-23T11:15:53.780Z,95836.41
2022-12-23T11:18:22.165Z,95836.00
2022-12-23T11:21:04.990Z,95831.16
2022-12-23T11:23:35.919Z,95830.72
2022-12-23T11:26:07.418Z,95813.34
2022-12-23T11:28:38.091Z,95813.94
2022-12-23T11:31:11.123Z,95808.50
2022-12-23T11:33:41.132Z,95809.06
2022-12-23T11:36:18.617Z,95807.13
2022-12-23T11:38:52.111Z,95804.59
2022-12-23T11:41:22.178Z,95802.78
2022-12-23T11:43:58.771Z,95794.63
2022-12-23T11:46:28.653Z,95795.31
2022-12-23T11:49:07.943Z,95790.44
2022-12-23T11:51:37.156Z,95779.88
2022-12-23T11:54:05.258Z,95780.56
2022-12-23T11:56:37.974Z,95774.59
2022-12-23T11:59:09.291Z,95768.59
2022-12-23T12:01:39.331Z,95766.66
2022-12-23T12:04:10.308Z,95763.03
2022-12-23T12:06:49.658Z,95753.03
2022-12-23T12:09:24.298Z,95745.38
2022-12-23T12:11:56.043Z,95733.03
2022-12-23T12:14:33.730Z,95722.47
2022-12-23T12:17:08.146Z,95716.31
2022-12-23T12:19:39.951Z,95726.63
2022-12-23T12:22:17.541Z,95718.53
2022-12-23T12:24:51.464Z,95717.72
2022-12-23T12:27:22.161Z,95711.31
2022-12-23T12:29:54.406Z,95714.94
2022-12-23T12:32:31.027Z,95713.13
2022-12-23T12:35:03.856Z,95701.59
2022-12-23T12:37:41.956Z,95700.59
2022-12-23T12:40:22.857Z,95697.84
2022-12-23T12:42:57.810Z,95697.84
2022-12-23T12:45:30.872Z,95698.50
2022-12-23T12:48:18.475Z,95697.66
2022-12-23T12:50:58.948Z,95694.19
2022-12-23T12:53:31.221Z,95687.09
2022-12-23T12:56:04.690Z,95682.66
2022-12-23T12:58:32.655Z,95684.31
2022-12-23T13:01:23.927Z,95680.44
2022-12-23T13:04:22.405Z,95671.50
2022-12-23T13:07:02.994Z,95663.59
2022-12-23T13:09:42.164Z,95666.22
2022-12-23T13:12:18.489Z,95659.00
2022-12-23T13:14:54.771Z,95659.97
2022-12-23T13:17:26.341Z,95652.72
2022-12-23T13:20:02.699Z,95661.50
2022-12-23T13:22:34.115Z,95653.28
2022-12-23T13:25:12.756Z,95660.38
2022-12-23T13:27:47.507Z,95654.81
2022-12-23T13:30:17.708Z,95654.00
2022-12-23T13:33:12.267Z,95651.19
2022-12-23T13:36:01.274Z,95653.00
2022-12-23T13:38:59.981Z,95653.56
2022-12-23T13:41:33.775Z,95658.97
2022-12-23T13:44:05.266Z,95668.59
2022-12-23T13:46:45.152Z,95655.38
2022-12-23T13:49:22.719Z,95650.91
2022-12-23T13:51:55.539Z,95655.38
2022-12-23T13:54:36.767Z,95646.47
2022-12-23T13:57:19.113Z,95646.59
2022-12-23T14:00:04.951Z,95641.31
2022-12-23T14:02:44.926Z,95643.00
2022-12-23T14:05:32.359Z,95637.84
2022-12-23T14:08:01.610Z,95638.97
2022-12-23T14:10:30.114Z,95635.34
2022-12-23T14:13:05.455Z,95640.63
2022-12-23T14:16:21.463Z,95631.16
2022-12-23T14:19:12.457Z,95633.97
2022-12-23T14:21:48.485Z,95636.59
2022-12-23T14:24:50.756Z,95627.00
2022-12-23T14:27:36.661Z,95636.72
2022-12-23T14:30:14.636Z,95629.63
2022-12-23T14:32:48.222Z,95627.00
2022-12-23T14:35:45.699Z,95628.66
2022-12-23T14:38:29.694Z,95617.41
2022-12-23T14:41:20.316Z,95619.88
2022-12-23T14:44:02.821Z,95618.09
2022-12-23T14:46:58.937Z,95624.34
2022-12-23T14:49:41.206Z,95619.88
2022-12-23T14:52:54.827Z,95624.94
2022-12-23T14:55:50.434Z,95628.66
2022-12-23T14:58:37.493Z,95631.16
2022-12-23T15:01:11.386Z,95636.72
2022-12-23T15:03:46.106Z,95635.59
2022-12-23T15:06:19.235Z,95638.25
2022-12-23T15:08:51.840Z,95638.38
2022-12-23T15:11:28.260Z,95653.13
2022-12-23T15:14:00.504Z,95653.13
2022-12-23T15:16:35.082Z,95648.81
2022-12-23T15:19:14.088Z,95651.75
2022-12-23T15:21:44.902Z,95668.44
2022-12-23T15:24:19.455Z,95665.09
2022-12-23T15:27:24.450Z,95662.47
2022-12-23T15:29:46.759Z,95674.72
2022-12-23T15:32:14.866Z,95667.59
2022-12-23T15:34:43.097Z,95674.72
2022-12-23T15:37:12.749Z,95672.06
2022-12-23T15:39:43.704Z,95675.38
2022-12-23T15:42:24.872Z,95679.13
2022-12-23T15:44:54.606Z,95682.47
2022-12-23T15:47:24.880Z,95674.53
2022-12-23T15:49:53.071Z,95684.28
2022-12-23T15:52:21.236Z,95678.19
2022-12-23T15:54:56.193Z,95673.41
2022-12-23T15:57:27.614Z,95675.97
2022-12-23T15:59:58.479Z,95661.50
2022-12-23T16:05:27.079Z,95666.22
2022-12-23T16:08:09.943Z,95672.06
2022-12-23T16:10:37.814Z,95660.19
2022-12-23T16:13:05.698Z,95661.50
2022-12-23T16:15:34.870Z,95648.28
2022-12-23T16:18:20.718Z,95656.03
2022-12-23T16:20:53.400Z,95667.47
2022-12-23T16:23:22.482Z,95671.22
2022-12-23T16:25:53.863Z,95656.19
2022-12-23T16:28:24.439Z,95670.38
2022-12-23T16:30:57.296Z,95663.13
2022-12-23T16:33:35.088Z,95665.09
2022-12-23T16:36:19.207Z,95680.25
2022-12-23T16:38:48.126Z,95674.84
2022-12-23T16:41:16.222Z,95676.34
2022-12-23T16:43:51.501Z,95672.75
2022-12-23T16:46:23.596Z,95672.75
2022-12-23T16:48:53.355Z,95682.47
2022-12-23T16:51:24.484Z,95678.69
2022-12-23T16:53:55.138Z,95676.22
2022-12-23T16:56:24.840Z,95660.19
2022-12-23T16:58:52.664Z,95666.16
2022-12-23T17:01:24.444Z,95671.63
2022-12-23T17:03:53.110Z,95658.53
2022-12-23T17:06:22.749Z,95665.66
2022-12-23T17:08:51.063Z,95664.66
2022-12-23T17:11:25.885Z,95670.63
2022-12-23T17:14:01.444Z,95679.56
2022-12-23T17:16:33.758Z,95665.34
2022-12-23T17:19:01.748Z,95664.53
2022-12-23T17:21:32.451Z,95669.81
2022-12-23T17:24:06.092Z,95653.13
2022-12-23T17:26:33.991Z,95656.91
2022-12-23T17:29:03.444Z,95664.81
2022-12-23T17:31:31.877Z,95653.94
2022-12-23T17:34:01.499Z,95657.84
2022-12-23T17:36:29.840Z,95662.31
2022-12-23T17:38:57.778Z,95662.31
2022-12-23T17:41:29.362Z,95671.06
2022-12-23T17:43:58.018Z,95679.00
2022-12-23T17:46:27.003Z,95687.63
2022-12-23T17:48:57.020Z,95691.78
2022-12-23T17:51:27.641Z,95686.34
2022-12-23T17:53:58.155Z,95694.28
2022-12-23T17:56:28.697Z,95702.22
2022-12-23T17:58:56.626Z,95694.97
2022-12-23T18:01:26.497Z,95707.88
2022-12-23T18:03:55.132Z,95706.38
2022-12-23T18:06:24.754Z,95722.34
2022-12-23T18:08:54.186Z,95747.97
2022-12-23T18:11:27.872Z,95735.31
2022-12-23T18:13:55.885Z,95755.47
2022-12-23T18:16:23.863Z,95765.19
2022-12-23T18:18:51.893Z,95768.66
2022-12-23T18:21:24.866Z,95764.50
2022-12-23T18:23:56.515Z,95769.22
2022-12-23T18:26:24.863Z,95771.34
2022-12-23T18:28:54.217Z,95767.19
2022-12-23T18:31:24.711Z,95747.41
2022-12-23T18:33:53.072Z,95767.19
2022-12-23T18:36:23.859Z,95763.84
2022-12-23T18:38:52.943Z,95764.09
2022-12-23T18:41:22.990Z,95757.19
2022-12-23T18:43:51.501Z,95755.78
2022-12-23T18:46:20.123Z,95748.69
2022-12-23T18:48:48.383Z,95750.66
2022-12-23T18:51:17.833Z,95767.63
2022-12-23T18:53:47.369Z,95773.03
2022-12-23T18:56:15.645Z,95780.16
2022-12-23T18:58:44.836Z,95786.13
2022-12-23T19:01:13.815Z,95783.31
2022-12-23T19:03:42.457Z,95785.00
2022-12-23T19:06:13.344Z,95758.59
2022-12-23T19:08:42.731Z,95765.81
2022-12-23T19:11:12.448Z,95773.88
2022-12-23T19:13:40.344Z,95782.78
2022-12-23T19:16:13.391Z,95778.31
2022-12-23T19:18:41.213Z,95774.00
2022-12-23T19:21:09.448Z,95786.25
2022-12-23T19:23:37.327Z,95793.34
2022-12-23T19:26:06.244Z,95789.84
2022-12-23T19:28:35.009Z,95786.53
2022-12-23T19:31:09.585Z,95789.44
2022-12-23T19:33:38.015Z,95802.66
2022-12-23T19:36:10.081Z,95804.19
2022-12-23T19:38:38.089Z,95810.44
2022-12-23T19:41:07.224Z,95806.00
2022-12-23T19:43:35.458Z,95803.34
2022-12-23T19:46:05.676Z,95813.91
2022-12-23T19:48:35.034Z,95818.38
2022-12-23T19:51:05.455Z,95826.16
2022-12-23T19:53:33.304Z,95814.75
2022-12-23T19:56:03.508Z,95832.41
2022-12-23T19:58:34.785Z,95845.47
2022-12-23T20:01:08.276Z,95834.09
2022-12-23T20:03:38.353Z,95833.09
2022-12-23T20:06:06.885Z,95840.31
2022-12-23T20:08:35.447Z,95842.00
2022-12-23T20:11:05.643Z,95848.25
2022-12-23T20:13:33.515Z,95860.50
2022-12-23T20:16:01.358Z,95850.88
2022-12-23T20:18:29.240Z,95865.91
2022-12-23T20:20:59.542Z,95875.66
2022-12-23T20:23:27.900Z,95877.19
2022-12-23T20:25:56.043Z,95886.91
2022-12-23T20:28:24.133Z,95887.88
2022-12-23T20:31:00.105Z,95892.19
2022-12-23T20:33:28.302Z,95893.72
2022-12-23T20:35:56.189Z,95899.25
2022-12-23T20:38:25.511Z,95893.97
2022-12-23T20:40:53.366Z,95894.84
2022-12-23T20:43:21.397Z,95910.69
2022-12-23T20:45:52.043Z,95914.56
2022-12-23T20:48:21.678Z,95932.50
2022-12-23T20:50:50.011Z,95940.69
2022-12-23T20:53:18.029Z,95944.03
2022-12-23T20:55:47.254Z,95947.22
2022-12-23T20:58:38.968Z,95941.38
2022-12-23T21:01:10.472Z,95960.00
2022-12-23T21:03:38.372Z,95949.03
2022-12-23T21:06:07.183Z,95954.31
2022-12-23T21:08:35.283Z,95961.78
2022-12-23T21:11:05.134Z,95962.19
2022-12-23T21:13:32.950Z,95966.78
2022-12-23T21:16:02.216Z,95957.19
2022-12-23T21:18:30.180Z,95963.31
2022-12-23T21:20:59.903Z,95950.63
2022-12-23T21:23:28.355Z,95961.47
2022-12-23T21:26:09.085Z,95955.50
2022-12-23T21:28:37.818Z,95942.28
2022-12-23T21:31:06.721Z,95940.34
2022-12-23T21:33:37.159Z,95953.69
2022-12-23T21:36:06.020Z,95954.78
2022-12-23T21:38:34.727Z,95956.00
2022-12-23T21:41:03.781Z,95954.34
2022-12-23T21:43:33.749Z,95981.84
2022-12-23T21:46:03.412Z,95974.22
2022-12-23T21:48:32.465Z,96000.59
2022-12-23T21:51:04.169Z,95999.91
2022-12-23T21:53:32.037Z,95993.75
2022-12-23T21:56:02.548Z,96021.97
2022-12-23T21:58:30.801Z,96016.56
2022-12-23T22:01:00.467Z,96015.16
2022-12-23T22:03:28.727Z,96023.06
2022-12-23T22:05:56.657Z,96026.09
2022-12-23T22:08:24.549Z,96027.19
2022-12-23T22:10:52.357Z,96012.34
2022-12-23T22:13:20.242Z,96013.56
2022-12-23T22:15:48.052Z,96022.47
2022-12-23T22:18:17.303Z,96005.78
2022-12-23T22:20:46.514Z,96007.84
2022-12-23T22:23:14.525Z,96016.00
2022-12-23T22:25:42.378Z,96025.88
2022-12-23T22:28:10.497Z,96031.00
2022-12-23T22:30:38.345Z,96037.25
2022-12-23T22:33:08.581Z,96026.41
2022-12-23T22:35:37.792Z,96025.69
2022-12-23T22:38:05.621Z,96044.41
2022-12-23T22:40:37.221Z,96056.63
2022-12-23T22:43:05.071Z,96065.38
2022-12-23T22:45:32.973Z,96061.19
2022-12-23T22:48:02.020Z,96058.81
2022-12-23T22:50:29.902Z,96063.13
2022-12-23T22:52:59.188Z,96069.38
2022-12-23T22:55:27.052Z,96051.88
2022-12-23T22:57:54.865Z,96062.94
2022-12-23T23:00:22.758Z,96070.00
2022-12-23T23:02:50.584Z,96071.94
2022-12-23T23:05:18.545Z,96066.66
2022-12-23T23:07:46.494Z,96062.75
2022-12-23T23:10:16.017Z,96064.41
2022-12-23T23:12:44.625Z,96066.22
2022-12-23T23:15:12.630Z,96060.94
2022-12-23T23:17:40.527Z,96075.22
2022-12-23T23:20:09.834Z,96072.69
2022-12-23T23:22:38.281Z,96073.69
2022-12-23T23:25:07.174Z,96075.72
2022-12-23T23:27:36.410Z,96072.38
2022-12-23T23:30:04.856Z,96058.34
2022-12-23T23:32:32.736Z,96062.78
2022-12-23T23:35:05.489Z,96084.84
2022-12-23T23:37:38.308Z,96072.75
2022-12-23T23:40:07.280Z,96062.34
2022-12-23T23:42:36.558Z,96073.00
2022-12-23T23:45:05.352Z,96077.69
2022-12-23T23:47:34.745Z,96075.19
2022-12-23T23:50:02.842Z,96083.94
2022-12-23T23:52:30.656Z,96083.66
2022-12-23T23:54:58.549Z,96090.63
2022-12-23T23:57:26.788Z,96101.28
2022-12-23T23:59:55.937Z,96101.16
